Huvudsida
METAR-TAF:

METAR-TAF

Flygplatser :

Girona-Costa Bravas flygplats

Girona, Spanien

latitud: 41-54N, longitud: 002-46E, höjd: 143 m

Aktuellt väderrapport

Denna rapport gjordes för 39 minuter sedan, klockan 14:30 UTC
Vind 4 kt från sydost, varierande mellan ost och sydväst
Temperatur 11°C
Fuktighet 50%
Tryck 1024 hPa
Sikt 10 km eller mer
Få moln på en höjd av 4500 ft

METAR: LEGE 211430Z 14004KT 100V230 9999 FEW045 11/01 Q1024

Tid: 16:09 (15:09 UTC)

Väderprognos

Denna rapport gjordes för 2 timmar och 39 minuter sedan, klockan 12:30 UTC
Prognos gäller från 21 kl. 12 UTC till 22 kl. 12 UTC
Vind 3 kt varierande vindriktning
Sikt 10 km eller mer
Brutna moln på en höjd av 2500 ft
Temporärt
från 22 kl. 03 UTC till 22 kl. 06 UTC
Sikt: 3000 m
Brutna moln på en höjd av 1000 ft
fuktdis

TAF: LEGE 211230Z 2112/2212 VRB03KT 9999 BKN025 TX13/2113Z TNM02/2206Z TEMPO 2203/2206 3000 BR BKN010

Aktuella väderrapporter och prognoser från 4000 flygplatser (METAR- och TAF-rapporter).

De tillgängliga stationerna syns som gula och röda prickar på kartan.

För musen över prickarna för att se namnen på stationerna.

Klicka sedan för att få väderrapporter och prognoser.

För att ändra kartan: Klicka på de gröna knapparna med ett svart kors på för att zooma in; den gröna knappen med ett streck på för att zooma ut; eller på de gröna pilarna för angränsande kartor.


METAR-TAF: